createdAt,value
2018-01-11T00:00:34.561Z,11.20
2018-01-11T00:03:03.973Z,10.75
2018-01-11T00:05:33.348Z,11.25
2018-01-11T00:08:02.714Z,12.88
2018-01-11T00:10:32.076Z,11.12
2018-01-11T00:13:01.470Z,10.90
2018-01-11T00:15:30.854Z,10.57
2018-01-11T00:18:00.268Z,9.88
2018-01-11T00:20:29.637Z,11.80
2018-01-11T00:22:59.037Z,14.90
2018-01-11T00:25:28.401Z,25.27
2018-01-11T00:27:57.810Z,13.43
2018-01-11T00:30:27.960Z,12.20
2018-01-11T00:32:57.385Z,11.05
2018-01-11T00:35:26.737Z,10.93
2018-01-11T00:37:56.875Z,11.52
2018-01-11T00:40:27.027Z,12.25
2018-01-11T00:42:56.407Z,12.70
2018-01-11T00:45:25.801Z,13.00
2018-01-11T00:47:55.190Z,12.45
2018-01-11T00:50:24.593Z,12.18
2018-01-11T00:52:54.706Z,11.75
2018-01-11T00:55:24.837Z,11.02
2018-01-11T00:57:54.203Z,12.80
2018-01-11T01:00:23.543Z,11.25
2018-01-11T01:02:53.686Z,12.52
2018-01-11T01:05:23.027Z,12.63
2018-01-11T01:07:52.433Z,13.25
2018-01-11T01:10:21.795Z,12.88
2018-01-11T01:12:51.216Z,12.63
2018-01-11T01:15:21.282Z,12.75
2018-01-11T01:17:50.675Z,12.52
2018-01-11T01:20:20.828Z,13.15
2018-01-11T01:22:50.229Z,12.85
2018-01-11T01:25:19.627Z,12.77
2018-01-11T01:27:49.020Z,11.25
2018-01-11T01:30:18.443Z,12.30
2018-01-11T01:32:48.758Z,12.32
2018-01-11T01:35:18.140Z,12.73
2018-01-11T01:37:48.313Z,11.90
2018-01-11T01:40:17.722Z,12.20
2018-01-11T01:42:47.099Z,11.70
2018-01-11T01:45:16.451Z,12.55
2018-01-11T01:47:45.803Z,12.63
2018-01-11T01:50:15.195Z,12.75
2018-01-11T01:52:44.633Z,11.85
2018-01-11T01:55:14.026Z,12.35
2018-01-11T01:57:43.399Z,12.40
2018-01-11T02:00:12.764Z,14.73
2018-01-11T02:02:42.133Z,14.80
2018-01-11T02:05:11.555Z,16.17
2018-01-11T02:07:40.946Z,12.27
2018-01-11T02:10:10.318Z,12.57
2018-01-11T02:12:39.724Z,13.65
2018-01-11T02:15:09.164Z,15.40
2018-01-11T02:17:38.518Z,14.68
2018-01-11T02:20:07.888Z,16.08
2018-01-11T02:22:37.307Z,15.70
2018-01-11T02:25:06.713Z,12.00
2018-01-11T02:27:36.134Z,13.85
2018-01-11T02:30:05.531Z,11.10
2018-01-11T02:32:34.886Z,11.85
2018-01-11T02:35:04.379Z,12.75
2018-01-11T02:37:33.756Z,9.32
2018-01-11T02:40:03.156Z,11.07
2018-01-11T02:42:32.525Z,10.98
2018-01-11T02:45:02.783Z,11.73
2018-01-11T02:47:32.163Z,13.02
2018-01-11T02:50:01.543Z,11.50
2018-01-11T02:52:31.670Z,10.07
2018-01-11T02:55:01.033Z,9.25
2018-01-11T02:57:30.446Z,9.27
2018-01-11T02:59:59.825Z,10.23
2018-01-11T03:02:29.228Z,10.55
2018-01-11T03:04:58.629Z,9.70
2018-01-11T03:07:28.055Z,9.00
2018-01-11T03:09:57.779Z,9.63
2018-01-11T03:12:27.212Z,10.20
2018-01-11T03:14:56.588Z,10.57
2018-01-11T03:17:25.934Z,10.10
2018-01-11T03:19:55.308Z,10.02
2018-01-11T03:22:24.726Z,8.82
2018-01-11T03:24:54.056Z,9.32
2018-01-11T03:27:23.458Z,9.55
2018-01-11T03:29:52.820Z,8.40
2018-01-11T03:32:22.254Z,8.52
2018-01-11T03:34:51.613Z,9.77
2018-01-11T03:37:21.003Z,9.38
2018-01-11T03:39:50.394Z,9.98
2018-01-11T03:42:19.798Z,9.73
2018-01-11T03:44:49.163Z,8.70
2018-01-11T03:47:18.558Z,8.73
2018-01-11T03:49:47.958Z,8.63
2018-01-11T03:52:17.322Z,8.93
2018-01-11T03:54:46.736Z,9.10
2018-01-11T03:57:16.167Z,7.68
2018-01-11T03:59:45.523Z,8.63
2018-01-11T04:02:14.865Z,8.25
2018-01-11T04:04:44.291Z,9.20
2018-01-11T04:07:13.694Z,7.32
2018-01-11T04:09:43.059Z,9.85
2018-01-11T04:12:13.244Z,9.35
2018-01-11T04:14:42.578Z,9.00
2018-01-11T04:17:11.962Z,8.73
2018-01-11T04:19:41.334Z,9.20
2018-01-11T04:22:10.752Z,10.32
2018-01-11T04:24:40.098Z,9.70
2018-01-11T04:27:09.491Z,10.27
2018-01-11T04:29:38.910Z,9.55
2018-01-11T04:32:08.315Z,10.00
2018-01-11T04:34:37.689Z,8.60
2018-01-11T04:37:07.844Z,9.30
2018-01-11T04:39:37.235Z,10.90
2018-01-11T04:42:06.640Z,11.32
2018-01-11T04:44:36.054Z,9.13
2018-01-11T04:47:05.450Z,9.95
2018-01-11T04:49:36.753Z,10.80
2018-01-11T04:52:06.117Z,10.23
2018-01-11T04:54:35.527Z,11.82
2018-01-11T04:57:04.960Z,11.00
2018-01-11T04:59:34.316Z,11.25
2018-01-11T05:02:03.716Z,10.85
2018-01-11T05:04:33.133Z,13.25
2018-01-11T05:07:02.481Z,13.43
2018-01-11T05:09:31.865Z,11.35
2018-01-11T05:12:01.354Z,10.90
2018-01-11T05:14:30.717Z,11.60
2018-01-11T05:17:00.114Z,14.40
2018-01-11T05:19:29.522Z,15.25
2018-01-11T05:21:58.918Z,14.50
2018-01-11T05:24:29.104Z,15.50
2018-01-11T05:26:58.502Z,17.00
2018-01-11T05:29:27.889Z,16.37
2018-01-11T05:31:57.293Z,13.55
2018-01-11T05:34:26.693Z,12.20
2018-01-11T05:36:56.086Z,12.05
2018-01-11T05:39:26.233Z,12.37
2018-01-11T05:41:55.598Z,12.88
2018-01-11T05:44:25.044Z,13.02
2018-01-11T05:46:54.399Z,12.82
2018-01-11T05:49:23.766Z,12.57
2018-01-11T05:51:53.910Z,12.20
2018-01-11T05:54:23.934Z,12.65
2018-01-11T05:56:55.106Z,12.85
2018-01-11T05:59:24.474Z,13.55
2018-01-11T06:01:53.886Z,14.63
2018-01-11T06:04:23.304Z,16.25
2018-01-11T06:06:52.701Z,14.50
2018-01-11T06:09:22.103Z,13.35
2018-01-11T06:11:51.523Z,14.82
2018-01-11T06:14:20.890Z,14.30
2018-01-11T06:16:50.277Z,13.27
2018-01-11T06:19:20.478Z,13.77
2018-01-11T06:21:49.831Z,13.35
2018-01-11T06:24:19.296Z,13.62
2018-01-11T06:26:49.510Z,14.13
2018-01-11T06:29:18.899Z,15.30
2018-01-11T06:31:48.311Z,13.80
2018-01-11T06:34:17.730Z,12.65
2018-01-11T06:36:47.851Z,12.27
2018-01-11T06:39:18.057Z,13.62
2018-01-11T06:41:47.424Z,13.70
2018-01-11T06:44:16.791Z,13.70
2018-01-11T06:46:46.998Z,12.27
2018-01-11T06:49:17.532Z,11.93
2018-01-11T06:51:47.080Z,17.10
2018-01-11T06:54:16.518Z,13.75
2018-01-11T06:56:45.890Z,16.00
2018-01-11T06:59:15.278Z,13.80
2018-01-11T07:01:44.707Z,12.57
2018-01-11T07:04:14.073Z,11.98
2018-01-11T07:06:43.475Z,12.07
2018-01-11T07:09:13.536Z,13.93
2018-01-11T07:11:42.974Z,14.07
2018-01-11T07:14:13.232Z,13.68
2018-01-11T07:16:42.612Z,13.62
2018-01-11T07:19:11.969Z,13.35
2018-01-11T07:21:41.527Z,13.05
2018-01-11T07:24:10.888Z,14.85
2018-01-11T07:26:40.314Z,13.00
2018-01-11T07:29:09.697Z,12.68
2018-01-11T07:31:39.810Z,15.10
2018-01-11T07:34:09.210Z,12.27
2018-01-11T07:36:38.581Z,13.62
2018-01-11T07:39:07.979Z,12.15
2018-01-11T07:41:37.868Z,14.07
2018-01-11T07:44:07.260Z,14.57
2018-01-11T07:46:36.665Z,15.05
2018-01-11T07:49:06.335Z,13.80
2018-01-11T07:51:35.726Z,15.73
2018-01-11T07:54:05.428Z,16.23
2018-01-11T07:56:35.173Z,16.15
2018-01-11T07:59:04.735Z,16.50
2018-01-11T08:01:34.088Z,20.05
2018-01-11T08:04:05.138Z,18.12
2018-01-11T08:06:35.261Z,18.85
2018-01-11T08:09:04.757Z,18.23
2018-01-11T08:11:34.881Z,17.48
2018-01-11T08:14:05.050Z,17.67
2018-01-11T08:16:35.306Z,19.77
2018-01-11T08:19:04.759Z,18.37
2018-01-11T08:21:34.240Z,15.73
2018-01-11T08:24:03.633Z,17.85
2018-01-11T08:26:33.757Z,17.02
2018-01-11T08:29:03.309Z,18.17
2018-01-11T08:31:32.716Z,16.77
2018-01-11T08:34:02.102Z,17.42
2018-01-11T08:36:31.605Z,18.55
2018-01-11T08:39:01.795Z,16.83
2018-01-11T08:41:31.988Z,17.67
2018-01-11T08:44:01.354Z,20.20
2018-01-11T08:46:30.719Z,19.55
2018-01-11T08:49:00.909Z,18.08
2018-01-11T08:51:30.327Z,19.10
2018-01-11T08:54:00.511Z,17.08
2018-01-11T08:56:29.885Z,17.58
2018-01-11T08:58:59.232Z,18.90
2018-01-11T09:01:28.651Z,18.20
2018-01-11T09:03:58.037Z,19.12
2018-01-11T09:06:27.414Z,18.52
2018-01-11T09:08:57.548Z,17.92
2018-01-11T09:11:26.929Z,19.02
2018-01-11T09:13:56.291Z,19.05
2018-01-11T09:16:25.688Z,18.83
2018-01-11T09:18:55.920Z,18.98
2018-01-11T09:21:26.050Z,20.37
2018-01-11T09:23:55.548Z,19.60
2018-01-11T09:26:24.948Z,20.35
2018-01-11T09:28:55.129Z,28.98
2018-01-11T09:31:24.562Z,29.15
2018-01-11T09:33:53.927Z,28.40
2018-01-11T09:36:23.327Z,51.70
2018-01-11T09:38:52.726Z,145.25
2018-01-11T09:41:22.154Z,56.03
2018-01-11T09:43:51.526Z,44.88
2018-01-11T09:46:20.955Z,27.83
2018-01-11T09:48:50.308Z,27.98
2018-01-11T09:51:19.662Z,35.03
2018-01-11T09:53:49.124Z,31.20
2018-01-11T09:56:18.482Z,30.40
2018-01-11T09:58:47.847Z,27.48
2018-01-11T10:01:17.227Z,25.75
2018-01-11T10:03:46.636Z,25.50
2018-01-11T10:06:16.082Z,24.25
2018-01-11T10:08:45.423Z,22.75
2018-01-11T10:11:14.826Z,20.62
2018-01-11T10:13:44.287Z,23.65
2018-01-11T10:16:13.631Z,24.42
2018-01-11T10:18:42.988Z,23.15
2018-01-11T10:21:12.406Z,22.10
2018-01-11T10:23:41.811Z,21.92
2018-01-11T10:26:11.219Z,21.80
2018-01-11T10:28:40.613Z,21.83
2018-01-11T10:31:10.010Z,18.25
2018-01-11T10:33:39.406Z,18.90
2018-01-11T10:36:08.848Z,18.33
2018-01-11T10:38:38.255Z,20.10
2018-01-11T10:41:07.610Z,19.52
2018-01-11T10:43:37.831Z,20.52
2018-01-11T10:46:07.246Z,20.25
2018-01-11T10:48:36.693Z,18.45
2018-01-11T10:51:06.048Z,20.02
2018-01-11T10:53:35.400Z,20.30
2018-01-11T10:56:04.784Z,20.60
2018-01-11T10:58:34.204Z,19.73
2018-01-11T11:04:08.250Z,19.33
2018-01-11T11:06:37.657Z,19.05
2018-01-11T11:09:07.012Z,19.40
2018-01-11T11:11:37.174Z,19.83
2018-01-11T11:14:06.521Z,18.23
2018-01-11T11:16:35.926Z,19.75
2018-01-11T11:19:05.359Z,21.55
2018-01-11T11:21:34.750Z,19.35
2018-01-11T11:24:04.909Z,19.52
2018-01-11T11:26:34.297Z,19.25
2018-01-11T11:29:04.270Z,19.45
2018-01-11T11:31:33.652Z,20.48
2018-01-11T11:34:03.074Z,18.55
2018-01-11T11:36:32.434Z,18.35
2018-01-11T11:39:01.827Z,16.90
2018-01-11T11:41:31.239Z,18.12
2018-01-11T11:44:00.726Z,18.10
2018-01-11T11:46:30.127Z,18.65
2018-01-11T11:48:59.493Z,17.58
2018-01-11T11:51:28.967Z,17.80
2018-01-11T11:53:58.374Z,16.90
2018-01-11T11:56:27.939Z,12.95
2018-01-11T11:58:57.329Z,12.15
2018-01-11T12:01:26.681Z,13.43
2018-01-11T12:03:56.029Z,13.55
2018-01-11T12:06:25.402Z,16.02
2018-01-11T12:08:54.795Z,13.00
2018-01-11T12:11:24.174Z,16.25
2018-01-11T12:13:53.574Z,15.20
2018-01-11T12:16:22.985Z,16.92
2018-01-11T12:18:52.403Z,18.58
2018-01-11T12:21:21.856Z,17.37
2018-01-11T12:23:51.205Z,16.45
2018-01-11T12:26:20.627Z,17.70
2018-01-11T12:28:51.098Z,17.67
2018-01-11T12:31:20.484Z,16.10
2018-01-11T12:33:49.898Z,17.62
2018-01-11T12:36:19.304Z,18.55
2018-01-11T12:38:48.728Z,17.60
2018-01-11T12:41:18.120Z,18.77
2018-01-11T12:43:47.530Z,17.23
2018-01-11T12:46:16.976Z,16.48
2018-01-11T12:48:46.366Z,16.42
2018-01-11T12:51:15.769Z,15.77
2018-01-11T12:53:45.157Z,14.70
2018-01-11T12:56:14.519Z,13.77
2018-01-11T12:58:43.865Z,13.15
2018-01-11T13:01:13.241Z,13.20
2018-01-11T13:03:42.633Z,11.35
2018-01-11T13:06:11.972Z,12.75
2018-01-11T13:08:41.366Z,9.18
2018-01-11T13:11:10.853Z,10.35
2018-01-11T13:13:40.278Z,10.05
2018-01-11T13:16:09.670Z,10.68
2018-01-11T13:18:39.396Z,9.45
2018-01-11T13:21:09.091Z,10.65
2018-01-11T13:23:38.587Z,9.60
2018-01-11T13:26:08.027Z,11.23
2018-01-11T13:28:37.539Z,8.85
2018-01-11T13:31:07.267Z,5.78
2018-01-11T13:33:36.672Z,7.60
2018-01-11T13:36:06.069Z,8.77
2018-01-11T13:38:35.483Z,6.57
2018-01-11T13:41:05.643Z,6.68
2018-01-11T13:43:35.014Z,10.05
2018-01-11T13:46:04.370Z,9.32
2018-01-11T13:48:33.730Z,9.15
2018-01-11T13:51:03.123Z,10.30
2018-01-11T13:53:32.498Z,11.07
2018-01-11T13:56:01.900Z,11.40
2018-01-11T13:58:31.317Z,11.98
2018-01-11T14:01:01.472Z,11.68
2018-01-11T14:03:30.867Z,11.30
2018-01-11T14:06:00.274Z,10.60
2018-01-11T14:08:29.790Z,12.00
2018-01-11T14:10:59.248Z,11.40
2018-01-11T14:13:28.635Z,10.85
2018-01-11T14:15:58.016Z,11.98
2018-01-11T14:18:27.360Z,13.43
2018-01-11T14:20:57.521Z,13.95
2018-01-11T14:23:26.924Z,12.80
2018-01-11T14:25:56.303Z,12.90
2018-01-11T14:28:26.463Z,12.23
2018-01-11T14:30:55.867Z,11.30
2018-01-11T14:33:25.274Z,10.93
2018-01-11T14:35:54.711Z,9.77
2018-01-11T14:38:24.879Z,10.70
2018-01-11T14:40:54.330Z,9.52
2018-01-11T14:43:24.465Z,8.43
2018-01-11T14:45:53.879Z,9.60
2018-01-11T14:48:23.294Z,9.52
2018-01-11T14:50:52.643Z,7.95
2018-01-11T14:53:21.998Z,7.65
2018-01-11T14:55:51.402Z,7.78
2018-01-11T14:58:20.746Z,9.10
2018-01-11T15:00:50.096Z,7.72
2018-01-11T15:03:19.477Z,7.78
2018-01-11T15:05:49.596Z,6.90
2018-01-11T15:08:19.026Z,7.32
2018-01-11T15:10:48.414Z,8.43
2018-01-11T15:13:17.821Z,9.93
2018-01-11T15:15:47.223Z,10.40
2018-01-11T15:18:16.587Z,11.90
2018-01-11T15:20:45.932Z,10.95
2018-01-11T15:23:15.356Z,12.93
2018-01-11T15:25:44.712Z,12.23
2018-01-11T15:28:14.164Z,13.02
2018-01-11T15:30:43.522Z,13.10
2018-01-11T15:33:12.882Z,12.45
2018-01-11T15:35:42.246Z,12.18
2018-01-11T15:38:11.639Z,11.48
2018-01-11T15:40:40.998Z,12.10
2018-01-11T15:43:10.442Z,12.88
2018-01-11T15:45:39.818Z,12.00
2018-01-11T15:48:09.180Z,10.77
2018-01-11T15:50:38.599Z,12.05
2018-01-11T15:53:08.031Z,11.57
2018-01-11T15:55:37.393Z,10.95
2018-01-11T15:58:06.813Z,10.98
2018-01-11T16:00:36.217Z,13.10
2018-01-11T16:03:05.620Z,13.80
2018-01-11T16:05:34.999Z,14.10
2018-01-11T16:08:04.393Z,13.75
2018-01-11T16:10:33.798Z,15.05
2018-01-11T16:13:03.207Z,15.32
2018-01-11T16:15:32.631Z,16.30
2018-01-11T16:18:02.025Z,15.57
2018-01-11T16:20:31.380Z,15.63
2018-01-11T16:23:00.762Z,16.23
2018-01-11T16:25:30.131Z,18.10
2018-01-11T16:27:59.520Z,16.37
2018-01-11T16:30:29.773Z,18.17
2018-01-11T16:32:59.244Z,15.55
2018-01-11T16:35:28.720Z,18.67
2018-01-11T16:37:58.125Z,18.92
2018-01-11T16:40:27.537Z,18.62
2018-01-11T16:42:56.967Z,17.58
2018-01-11T16:45:26.384Z,19.08
2018-01-11T16:47:55.777Z,21.12
2018-01-11T16:50:25.198Z,19.87
2018-01-11T16:52:54.546Z,19.75
2018-01-11T16:55:23.934Z,17.77
2018-01-11T16:57:54.133Z,19.50
2018-01-11T17:00:24.298Z,21.55
2018-01-11T17:02:53.751Z,19.70
2018-01-11T17:05:23.162Z,19.12
2018-01-11T17:07:53.330Z,21.15
2018-01-11T17:10:22.713Z,18.37
2018-01-11T17:12:52.312Z,20.50
2018-01-11T17:15:21.684Z,21.12
2018-01-11T17:17:51.104Z,19.50
2018-01-11T17:20:20.476Z,19.77
2018-01-11T17:22:49.846Z,20.60
2018-01-11T17:25:19.776Z,20.00
2018-01-11T17:27:49.186Z,19.33
2018-01-11T17:30:18.980Z,19.45
2018-01-11T17:32:48.362Z,19.50
2018-01-11T17:35:17.725Z,20.77
2018-01-11T17:37:47.922Z,21.85
2018-01-11T17:40:17.300Z,22.17
2018-01-11T17:42:46.642Z,23.77
2018-01-11T17:45:16.005Z,21.80
2018-01-11T17:47:45.421Z,22.40
2018-01-11T17:50:15.123Z,21.58
2018-01-11T17:52:44.500Z,22.27
2018-01-11T17:55:13.865Z,20.92
2018-01-11T17:57:44.142Z,22.60
2018-01-11T18:00:13.565Z,22.10
2018-01-11T18:02:42.905Z,22.08
2018-01-11T18:05:12.312Z,22.15
2018-01-11T18:07:41.746Z,22.75
2018-01-11T18:10:11.142Z,22.92
2018-01-11T18:12:41.177Z,21.45
2018-01-11T18:15:10.540Z,22.85
2018-01-11T18:17:40.703Z,22.77
2018-01-11T18:20:10.113Z,23.58
2018-01-11T18:22:39.543Z,22.33
2018-01-11T18:25:08.932Z,21.20
2018-01-11T18:27:38.322Z,21.35
2018-01-11T18:30:07.740Z,21.87
2018-01-11T18:32:37.092Z,20.77
2018-01-11T18:35:06.505Z,21.62
2018-01-11T18:37:35.896Z,21.12
2018-01-11T18:40:05.293Z,22.00
2018-01-11T18:42:34.732Z,22.55
2018-01-11T18:45:04.180Z,20.60
2018-01-11T18:47:34.536Z,19.55
2018-01-11T18:50:03.937Z,19.90
2018-01-11T18:52:33.360Z,21.37
2018-01-11T18:55:03.068Z,20.67
2018-01-11T18:57:32.448Z,21.20
2018-01-11T19:00:01.900Z,19.30
2018-01-11T19:02:32.926Z,21.83
2018-01-11T19:05:02.362Z,20.08
2018-01-11T19:07:31.757Z,19.10
2018-01-11T19:10:01.228Z,19.40
2018-01-11T19:12:30.599Z,20.65
2018-01-11T19:15:00.013Z,20.90
2018-01-11T19:17:29.514Z,20.95
2018-01-11T19:19:59.036Z,21.05
2018-01-11T19:22:28.452Z,21.23
2018-01-11T19:24:57.804Z,20.30
2018-01-11T19:27:27.981Z,21.55
2018-01-11T19:29:58.349Z,21.48
2018-01-11T19:32:27.716Z,21.67
2018-01-11T19:34:57.104Z,20.20
2018-01-11T19:37:26.444Z,20.55
2018-01-11T19:39:55.834Z,21.65
2018-01-11T19:42:25.232Z,23.65
2018-01-11T19:44:54.627Z,22.33
2018-01-11T19:47:24.052Z,21.73
2018-01-11T19:49:53.408Z,18.62
2018-01-11T19:52:22.772Z,20.27
2018-01-11T19:54:52.969Z,21.65
2018-01-11T19:57:22.369Z,19.12
2018-01-11T19:59:51.777Z,20.27
2018-01-11T20:02:21.234Z,18.95
2018-01-11T20:04:50.587Z,19.75
2018-01-11T20:07:19.931Z,18.62
2018-01-11T20:09:49.337Z,19.25
2018-01-11T20:12:18.725Z,18.08
2018-01-11T20:14:48.124Z,20.40
2018-01-11T20:17:18.296Z,19.05
2018-01-11T20:19:47.689Z,18.65
2018-01-11T20:22:17.089Z,19.12
2018-01-11T20:24:46.432Z,18.62
2018-01-11T20:27:15.797Z,19.67
2018-01-11T20:29:45.169Z,19.23
2018-01-11T20:32:15.537Z,22.17
2018-01-11T20:34:44.908Z,17.40
2018-01-11T20:37:14.356Z,17.98
2018-01-11T20:39:43.755Z,19.23
2018-01-11T20:42:13.172Z,20.40
2018-01-11T20:44:42.641Z,19.92
2018-01-11T20:47:12.067Z,18.85
2018-01-11T20:49:41.419Z,19.48
2018-01-11T20:52:11.751Z,18.85
2018-01-11T20:54:41.123Z,18.42
2018-01-11T20:57:10.522Z,20.77
2018-01-11T20:59:40.680Z,19.52
2018-01-11T21:02:10.083Z,20.30
2018-01-11T21:04:40.288Z,18.12
2018-01-11T21:07:09.717Z,17.60
2018-01-11T21:09:39.141Z,18.58
2018-01-11T21:12:08.572Z,17.33
2018-01-11T21:14:38.719Z,19.77
2018-01-11T21:17:08.106Z,17.98
2018-01-11T21:19:37.561Z,17.90
2018-01-11T21:22:06.953Z,19.17
2018-01-11T21:24:36.370Z,20.40
2018-01-11T21:27:05.755Z,19.33
2018-01-11T21:29:35.151Z,21.05
2018-01-11T21:32:04.541Z,19.20
2018-01-11T21:34:33.963Z,19.33
2018-01-11T21:37:05.286Z,21.02
2018-01-11T21:39:34.711Z,20.40
2018-01-11T21:42:04.125Z,21.40
2018-01-11T21:44:33.537Z,17.25
2018-01-11T21:47:02.925Z,19.95
2018-01-11T21:49:32.327Z,20.67
2018-01-11T21:52:01.759Z,19.27
2018-01-11T21:54:31.184Z,19.15
2018-01-11T21:57:01.308Z,19.58
2018-01-11T21:59:31.489Z,19.67
2018-01-11T22:02:00.849Z,18.62
2018-01-11T22:04:30.202Z,19.58
2018-01-11T22:06:59.632Z,19.87
2018-01-11T22:09:29.762Z,20.48
2018-01-11T22:11:59.134Z,17.90
2018-01-11T22:14:28.540Z,19.00
2018-01-11T22:16:57.944Z,19.67
2018-01-11T22:19:27.309Z,18.62
2018-01-11T22:21:56.710Z,17.90
2018-01-11T22:24:26.134Z,19.33
2018-01-11T22:26:55.538Z,19.50
2018-01-11T22:29:24.938Z,18.12
2018-01-11T22:31:54.423Z,19.12
2018-01-11T22:34:23.786Z,19.42
2018-01-11T22:36:53.932Z,18.95
2018-01-11T22:39:23.298Z,17.87
2018-01-11T22:41:53.488Z,18.60
2018-01-11T22:44:22.843Z,17.17
2018-01-11T22:46:52.231Z,18.95
2018-01-11T22:49:21.633Z,19.33
2018-01-11T22:51:51.035Z,20.37
2018-01-11T22:54:21.210Z,18.33
2018-01-11T22:56:50.576Z,19.48
2018-01-11T22:59:19.994Z,19.45
2018-01-11T23:01:49.395Z,17.55
2018-01-11T23:04:18.744Z,20.55
2018-01-11T23:06:48.116Z,20.33
2018-01-11T23:09:17.471Z,20.00
2018-01-11T23:11:46.906Z,18.23
2018-01-11T23:14:16.297Z,18.62
2018-01-11T23:16:45.676Z,18.50
2018-01-11T23:19:15.081Z,19.37
2018-01-11T23:21:45.250Z,19.27
2018-01-11T23:24:14.657Z,16.98
2018-01-11T23:26:44.014Z,18.23
2018-01-11T23:29:13.445Z,18.17
2018-01-11T23:31:42.824Z,16.50
2018-01-11T23:34:12.215Z,17.05
2018-01-11T23:36:42.354Z,17.65
2018-01-11T23:39:11.706Z,18.55
2018-01-11T23:41:41.070Z,18.20
2018-01-11T23:44:10.458Z,18.02
2018-01-11T23:46:39.825Z,16.10
2018-01-11T23:49:09.249Z,17.75
2018-01-11T23:51:39.404Z,17.37
2018-01-11T23:54:08.865Z,18.83
2018-01-11T23:56:38.988Z,17.95
2018-01-11T23:59:08.912Z,17.12
